createdAt,value
2019-01-26T00:00:35.507Z,69.01
2019-01-26T00:01:36.360Z,68.03
2019-01-26T00:02:37.214Z,69.04
2019-01-26T00:03:38.074Z,68.45
2019-01-26T00:04:38.945Z,68.61
2019-01-26T00:05:39.849Z,68.06
2019-01-26T00:06:40.702Z,68.65
2019-01-26T00:07:41.551Z,68.60
2019-01-26T00:08:42.411Z,67.60
2019-01-26T00:09:43.275Z,66.64
2019-01-26T00:10:44.159Z,67.06
2019-01-26T00:11:45.027Z,68.91
2019-01-26T00:12:45.886Z,68.29
2019-01-26T00:13:46.738Z,67.92
2019-01-26T00:14:47.599Z,65.09
2019-01-26T00:15:48.497Z,68.97
2019-01-26T00:16:49.351Z,68.17
2019-01-26T00:17:50.205Z,68.21
2019-01-26T00:18:51.059Z,67.83
2019-01-26T00:19:51.914Z,66.54
2019-01-26T00:20:52.813Z,67.73
2019-01-26T00:21:53.677Z,67.40
2019-01-26T00:22:54.540Z,65.19
2019-01-26T00:23:55.387Z,67.48
2019-01-26T00:24:56.248Z,65.60
2019-01-26T00:25:57.144Z,68.34
2019-01-26T00:26:58.004Z,68.29
2019-01-26T00:27:58.858Z,67.56
2019-01-26T00:28:59.715Z,67.15
2019-01-26T00:30:00.766Z,67.09
2019-01-26T00:31:01.814Z,67.16
2019-01-26T00:32:02.763Z,67.58
2019-01-26T00:33:03.616Z,65.58
2019-01-26T00:34:04.496Z,68.99
2019-01-26T00:35:05.339Z,68.69
2019-01-26T00:36:06.243Z,68.37
2019-01-26T00:37:07.100Z,67.96
2019-01-26T00:38:07.955Z,67.73
2019-01-26T00:39:08.810Z,67.55
2019-01-26T00:40:10.769Z,67.30
2019-01-26T00:41:11.656Z,66.70
2019-01-26T00:42:12.520Z,66.55
2019-01-26T00:43:13.382Z,66.76
2019-01-26T00:44:14.230Z,65.33
2019-01-26T00:45:15.185Z,67.53
2019-01-26T00:46:16.089Z,64.58
2019-01-26T00:47:16.953Z,68.03
2019-01-26T00:48:17.820Z,67.27
2019-01-26T00:49:18.681Z,66.97
2019-01-26T00:50:19.547Z,66.95
2019-01-26T00:51:20.437Z,66.65
2019-01-26T00:52:21.297Z,66.78
2019-01-26T00:53:22.149Z,66.52
2019-01-26T00:54:23.054Z,66.82
2019-01-26T00:55:24.029Z,66.24
2019-01-26T00:56:24.913Z,66.48
2019-01-26T00:57:25.781Z,66.52
2019-01-26T00:58:26.637Z,66.52
2019-01-26T00:59:27.617Z,66.19
2019-01-26T01:00:28.475Z,66.06
2019-01-26T01:01:31.985Z,65.13
2019-01-26T01:02:32.843Z,65.63
2019-01-26T01:03:33.728Z,67.37
2019-01-26T01:04:34.659Z,68.46
2019-01-26T01:05:35.516Z,66.98
2019-01-26T01:06:36.373Z,67.54
2019-01-26T01:07:37.229Z,66.14
2019-01-26T01:08:38.081Z,67.81
2019-01-26T01:09:39.007Z,67.42
2019-01-26T01:10:41.420Z,67.23
2019-01-26T01:11:42.286Z,67.01
2019-01-26T01:12:43.134Z,66.79
2019-01-26T01:13:43.991Z,66.54
2019-01-26T01:14:44.883Z,66.30
2019-01-26T01:15:45.734Z,66.08
2019-01-26T01:16:46.589Z,64.23
2019-01-26T01:17:47.451Z,67.66
2019-01-26T01:18:48.336Z,67.40
2019-01-26T01:19:49.182Z,66.97
2019-01-26T01:20:50.049Z,66.94
2019-01-26T01:21:50.926Z,66.22
2019-01-26T01:22:51.853Z,67.25
2019-01-26T01:23:52.707Z,67.03
2019-01-26T01:24:53.598Z,66.61
2019-01-26T01:25:54.445Z,66.29
2019-01-26T01:26:55.302Z,66.01
2019-01-26T01:27:56.160Z,66.30
2019-01-26T01:28:57.024Z,67.36
2019-01-26T01:29:57.894Z,66.84
2019-01-26T01:30:58.751Z,66.65
2019-01-26T01:31:59.610Z,66.55
2019-01-26T01:33:00.510Z,65.90
2019-01-26T01:34:01.512Z,65.57
2019-01-26T01:35:03.170Z,65.53
2019-01-26T01:36:04.023Z,65.54
2019-01-26T01:37:04.890Z,65.41
2019-01-26T01:38:05.774Z,65.51
2019-01-26T01:39:06.636Z,65.39
2019-01-26T01:40:09.500Z,65.71
2019-01-26T01:41:10.364Z,65.50
2019-01-26T01:42:11.206Z,66.73
2019-01-26T01:43:12.100Z,64.85
2019-01-26T01:44:12.960Z,68.07
2019-01-26T01:45:19.692Z,67.28
2019-01-26T01:46:20.552Z,67.93
2019-01-26T01:47:21.406Z,68.17
2019-01-26T01:48:22.300Z,66.81
2019-01-26T01:49:23.160Z,68.29
2019-01-26T01:50:24.018Z,67.01
2019-01-26T01:51:24.874Z,67.86
2019-01-26T01:52:25.731Z,67.33
2019-01-26T01:53:26.608Z,66.93
2019-01-26T01:54:27.458Z,66.95
2019-01-26T01:55:28.338Z,65.94
2019-01-26T01:56:29.192Z,66.67
2019-01-26T01:57:30.042Z,66.25
2019-01-26T01:58:30.949Z,66.39
2019-01-26T01:59:31.960Z,65.29
2019-01-26T02:00:32.916Z,63.00
2019-01-26T02:01:33.790Z,65.16
2019-01-26T02:02:34.640Z,67.64
2019-01-26T02:03:35.547Z,67.33
2019-01-26T02:04:36.430Z,67.43
2019-01-26T02:05:37.306Z,65.26
2019-01-26T02:06:38.167Z,67.69
2019-01-26T02:07:39.045Z,67.55
2019-01-26T02:08:39.943Z,66.66
2019-01-26T02:09:44.311Z,66.64
2019-01-26T02:10:45.124Z,66.61
2019-01-26T02:11:45.989Z,65.64
2019-01-26T02:12:46.843Z,67.28
2019-01-26T02:13:47.727Z,67.01
2019-01-26T02:14:48.593Z,66.86
2019-01-26T02:15:49.440Z,66.89
2019-01-26T02:16:50.417Z,66.96
2019-01-26T02:17:51.270Z,65.72
2019-01-26T02:18:52.165Z,66.70
2019-01-26T02:19:53.023Z,66.52
2019-01-26T02:20:53.879Z,65.71
2019-01-26T02:21:54.734Z,67.05
2019-01-26T02:22:55.630Z,66.65
2019-01-26T02:23:56.520Z,65.24
2019-01-26T02:24:57.390Z,68.10
2019-01-26T02:25:58.309Z,67.70
2019-01-26T02:26:59.217Z,67.45
2019-01-26T02:28:00.075Z,66.87
2019-01-26T02:29:00.969Z,66.43
2019-01-26T02:30:01.935Z,66.37
2019-01-26T02:31:02.782Z,66.19
2019-01-26T02:32:03.662Z,66.16
2019-01-26T02:33:04.560Z,66.10
2019-01-26T02:34:05.441Z,66.04
2019-01-26T02:35:06.325Z,66.18
2019-01-26T02:36:07.192Z,65.70
2019-01-26T02:37:08.054Z,65.27
2019-01-26T02:38:08.942Z,65.16
2019-01-26T02:39:09.811Z,65.34
2019-01-26T02:40:12.963Z,65.54
2019-01-26T02:41:13.814Z,65.47
2019-01-26T02:42:14.672Z,65.11
2019-01-26T02:43:15.569Z,65.51
2019-01-26T02:44:16.421Z,65.22
2019-01-26T02:45:17.271Z,64.97
2019-01-26T02:46:18.122Z,62.67
2019-01-26T02:47:19.086Z,66.67
2019-01-26T02:48:19.980Z,66.47
2019-01-26T02:49:20.834Z,66.71
2019-01-26T02:50:21.697Z,66.63
2019-01-26T02:51:22.542Z,66.12
2019-01-26T02:52:23.422Z,66.00
2019-01-26T02:53:24.301Z,65.52
2019-01-26T02:54:25.172Z,63.85
2019-01-26T02:55:26.021Z,67.71
2019-01-26T02:56:26.879Z,65.27
2019-01-26T02:57:27.735Z,66.40
2019-01-26T02:58:28.612Z,68.90
2019-01-26T02:59:29.476Z,68.19
2019-01-26T03:00:30.325Z,67.84
2019-01-26T03:01:31.183Z,67.50
2019-01-26T03:02:32.034Z,67.22
2019-01-26T03:03:33.028Z,67.18
2019-01-26T03:04:33.901Z,65.03
2019-01-26T03:05:34.758Z,68.48
2019-01-26T03:06:35.629Z,68.19
2019-01-26T03:07:36.479Z,67.73
2019-01-26T03:08:37.342Z,66.49
2019-01-26T03:09:38.196Z,66.81
2019-01-26T03:10:39.076Z,67.80
2019-01-26T03:11:39.915Z,67.36
2019-01-26T03:12:40.777Z,66.80
2019-01-26T03:13:41.668Z,64.67
2019-01-26T03:14:42.526Z,67.45
2019-01-26T03:15:43.411Z,66.78
2019-01-26T03:16:44.274Z,67.12
2019-01-26T03:17:45.127Z,67.87
2019-01-26T03:18:46.007Z,66.22
2019-01-26T03:19:46.859Z,67.67
2019-01-26T03:20:47.709Z,67.46
2019-01-26T03:21:48.555Z,69.50
2019-01-26T03:22:49.437Z,66.72
2019-01-26T03:23:50.498Z,69.47
2019-01-26T03:24:51.354Z,68.46
2019-01-26T03:25:52.198Z,66.07
2019-01-26T03:26:53.056Z,66.92
2019-01-26T03:27:53.913Z,69.49
2019-01-26T03:28:54.809Z,67.91
2019-01-26T03:29:55.669Z,67.53
2019-01-26T03:30:56.538Z,69.52
2019-01-26T03:31:57.388Z,69.04
2019-01-26T03:32:58.259Z,68.65
2019-01-26T03:33:59.262Z,67.56
2019-01-26T03:35:00.326Z,64.61
2019-01-26T03:36:01.301Z,66.01
2019-01-26T03:37:02.299Z,68.44
2019-01-26T03:38:03.206Z,66.07
2019-01-26T03:39:05.887Z,67.96
2019-01-26T03:40:10.330Z,69.06
2019-01-26T03:41:11.189Z,68.49
2019-01-26T03:42:12.072Z,68.57
2019-01-26T03:43:13.002Z,68.47
2019-01-26T03:44:13.859Z,67.74
2019-01-26T03:45:15.415Z,67.30
2019-01-26T03:46:16.267Z,66.29
2019-01-26T03:47:19.207Z,67.27
2019-01-26T03:48:20.097Z,67.33
2019-01-26T03:49:20.969Z,66.38
2019-01-26T03:50:21.819Z,68.20
2019-01-26T03:51:22.673Z,67.67
2019-01-26T03:52:23.541Z,64.74
2019-01-26T03:53:24.435Z,65.81
2019-01-26T03:54:25.301Z,66.58
2019-01-26T03:55:26.199Z,67.94
2019-01-26T03:56:27.054Z,69.10
2019-01-26T03:57:27.906Z,68.19
2019-01-26T03:58:28.814Z,68.25
2019-01-26T03:59:29.659Z,66.59
2019-01-26T04:00:30.515Z,67.75
2019-01-26T04:01:31.539Z,67.25
2019-01-26T04:02:32.405Z,66.48
2019-01-26T04:03:33.301Z,67.02
2019-01-26T04:04:34.185Z,66.50
2019-01-26T04:05:35.052Z,66.69
2019-01-26T04:06:35.910Z,66.28
2019-01-26T04:07:36.773Z,65.98
2019-01-26T04:08:37.655Z,66.38
2019-01-26T04:09:38.525Z,66.31
2019-01-26T04:10:39.385Z,66.14
2019-01-26T04:11:40.237Z,66.22
2019-01-26T04:12:41.083Z,66.63
2019-01-26T04:13:41.979Z,66.68
2019-01-26T04:14:42.833Z,66.20
2019-01-26T04:15:43.789Z,66.06
2019-01-26T04:16:44.657Z,66.36
2019-01-26T04:17:45.510Z,66.26
2019-01-26T04:18:46.413Z,65.27
2019-01-26T04:19:47.269Z,65.60
2019-01-26T04:20:48.135Z,65.56
2019-01-26T04:21:49.143Z,65.44
2019-01-26T04:22:49.998Z,65.10
2019-01-26T04:23:50.884Z,64.24
2019-01-26T04:24:51.761Z,65.45
2019-01-26T04:25:52.620Z,64.85
2019-01-26T04:26:53.467Z,65.51
2019-01-26T04:27:54.319Z,65.27
2019-01-26T04:28:55.216Z,65.98
2019-01-26T04:29:56.071Z,66.02
2019-01-26T04:30:56.952Z,65.55
2019-01-26T04:31:57.805Z,64.05
2019-01-26T04:32:58.663Z,66.01
2019-01-26T04:34:00.155Z,65.46
2019-01-26T04:35:01.021Z,62.82
2019-01-26T04:36:01.985Z,66.85
2019-01-26T04:37:02.863Z,66.43
2019-01-26T04:38:03.727Z,65.62
2019-01-26T04:39:06.087Z,64.65
2019-01-26T04:40:12.433Z,67.42
2019-01-26T04:41:13.293Z,64.66
2019-01-26T04:42:14.159Z,67.49
2019-01-26T04:43:15.019Z,64.36
2019-01-26T04:44:15.878Z,67.50
2019-01-26T04:45:18.929Z,67.18
2019-01-26T04:46:19.781Z,67.16
2019-01-26T04:47:20.653Z,66.98
2019-01-26T04:48:21.507Z,66.56
2019-01-26T04:49:22.370Z,63.08
2019-01-26T04:50:23.247Z,67.29
2019-01-26T04:51:24.110Z,66.66
2019-01-26T04:52:24.999Z,66.41
2019-01-26T04:53:25.855Z,65.93
2019-01-26T04:54:26.717Z,66.10
2019-01-26T04:55:27.585Z,66.28
2019-01-26T04:56:28.437Z,65.21
2019-01-26T04:57:29.333Z,64.34
2019-01-26T04:58:30.189Z,64.03
2019-01-26T04:59:31.158Z,66.73
2019-01-26T05:00:32.051Z,64.75
2019-01-26T05:01:32.900Z,68.19
2019-01-26T05:02:33.795Z,67.63
2019-01-26T05:03:34.662Z,66.90
2019-01-26T05:04:35.522Z,63.86
2019-01-26T05:05:36.378Z,65.20
2019-01-26T05:06:37.222Z,64.43
2019-01-26T05:07:38.123Z,67.67
2019-01-26T05:08:38.980Z,66.97
2019-01-26T05:09:39.833Z,64.17
2019-01-26T05:10:40.694Z,66.87
2019-01-26T05:11:41.544Z,64.83
2019-01-26T05:12:42.436Z,67.26
2019-01-26T05:13:43.291Z,67.18
2019-01-26T05:14:44.148Z,63.71
2019-01-26T05:15:45.003Z,67.21
2019-01-26T05:16:45.862Z,63.55
2019-01-26T05:17:46.755Z,67.55
2019-01-26T05:18:47.610Z,67.12
2019-01-26T05:19:48.477Z,63.62
2019-01-26T05:20:49.333Z,67.15
2019-01-26T05:21:50.189Z,67.03
2019-01-26T05:22:51.102Z,67.05
2019-01-26T05:23:51.953Z,66.25
2019-01-26T05:24:52.815Z,65.75
2019-01-26T05:25:53.676Z,62.80
2019-01-26T05:26:54.527Z,63.69
2019-01-26T05:27:55.419Z,63.89
2019-01-26T05:28:56.284Z,65.64
2019-01-26T05:29:57.147Z,67.02
2019-01-26T05:30:57.996Z,66.30
2019-01-26T05:31:58.853Z,65.69
2019-01-26T05:32:59.754Z,65.53
2019-01-26T05:34:00.637Z,65.00
2019-01-26T05:35:01.651Z,64.35
2019-01-26T05:36:02.561Z,62.86
2019-01-26T05:37:06.181Z,65.38
2019-01-26T05:38:07.087Z,63.37
2019-01-26T05:39:09.393Z,66.60
2019-01-26T05:40:15.495Z,66.18
2019-01-26T05:41:16.376Z,65.59
2019-01-26T05:42:17.215Z,63.25
2019-01-26T05:43:18.113Z,65.93
2019-01-26T05:44:18.963Z,65.69
2019-01-26T05:45:20.517Z,63.96
2019-01-26T05:46:21.379Z,66.18
2019-01-26T05:47:22.240Z,65.85
2019-01-26T05:48:23.159Z,65.01
2019-01-26T05:49:24.019Z,65.56
2019-01-26T05:50:24.975Z,65.16
2019-01-26T05:51:25.840Z,64.92
2019-01-26T05:52:26.699Z,63.10
2019-01-26T05:53:27.615Z,65.88
2019-01-26T05:54:28.469Z,65.28
2019-01-26T05:55:29.327Z,64.91
2019-01-26T05:56:30.211Z,64.82
2019-01-26T05:57:31.067Z,64.38
2019-01-26T05:58:32.128Z,64.12
2019-01-26T05:59:33.002Z,63.17
2019-01-26T06:00:33.856Z,64.54
2019-01-26T06:01:34.713Z,64.55
2019-01-26T06:02:35.604Z,64.16
2019-01-26T06:03:36.462Z,64.06
2019-01-26T06:04:37.340Z,64.45
2019-01-26T06:05:38.193Z,64.84
2019-01-26T06:06:39.040Z,65.00
2019-01-26T06:07:39.951Z,63.07
2019-01-26T06:08:40.819Z,65.82
2019-01-26T06:09:41.687Z,65.50
2019-01-26T06:10:42.539Z,65.42
2019-01-26T06:11:43.394Z,64.92
2019-01-26T06:12:44.286Z,65.01
2019-01-26T06:13:45.146Z,64.63
2019-01-26T06:14:46.004Z,61.07
2019-01-26T06:15:46.861Z,64.66
2019-01-26T06:16:47.714Z,64.30
2019-01-26T06:17:54.763Z,63.36
2019-01-26T06:18:51.375Z,64.23
2019-01-26T06:19:52.239Z,64.47
2019-01-26T06:20:53.099Z,60.68
2019-01-26T06:21:55.089Z,61.38
2019-01-26T06:22:55.937Z,62.68
2019-01-26T06:23:56.777Z,65.39
2019-01-26T06:24:57.633Z,66.01
2019-01-26T06:25:58.489Z,65.67
2019-01-26T06:26:59.385Z,64.71
2019-01-26T06:28:00.239Z,64.04
2019-01-26T06:29:01.106Z,62.11
2019-01-26T06:30:05.467Z,61.44
2019-01-26T06:31:06.325Z,65.28
2019-01-26T06:32:07.212Z,65.22
2019-01-26T06:33:08.089Z,64.39
2019-01-26T06:34:08.981Z,63.06
2019-01-26T06:35:09.846Z,61.77
2019-01-26T06:36:10.783Z,65.88
2019-01-26T06:37:16.636Z,65.57
2019-01-26T06:38:23.944Z,64.70
2019-01-26T06:39:24.796Z,61.89
2019-01-26T06:40:25.654Z,65.56
2019-01-26T06:41:26.619Z,63.61
2019-01-26T06:42:27.491Z,64.69
2019-01-26T06:43:33.193Z,62.57
2019-01-26T06:44:34.069Z,63.56
2019-01-26T06:45:36.076Z,62.47
2019-01-26T06:46:36.927Z,64.46
2019-01-26T06:47:37.783Z,62.43
2019-01-26T06:48:38.641Z,65.88
2019-01-26T06:49:44.323Z,63.05
2019-01-26T06:50:45.213Z,62.83
2019-01-26T06:51:54.863Z,64.28
2019-01-26T06:52:55.713Z,64.35
2019-01-26T06:53:56.559Z,64.29
2019-01-26T06:55:00.223Z,65.55
2019-01-26T06:56:01.115Z,63.74
2019-01-26T06:57:01.986Z,64.72
2019-01-26T06:58:02.837Z,66.62
2019-01-26T06:59:03.695Z,66.81
2019-01-26T07:00:11.117Z,65.39
2019-01-26T07:01:12.013Z,66.12
2019-01-26T07:02:12.865Z,63.11
2019-01-26T07:03:13.791Z,63.29
2019-01-26T07:04:34.583Z,66.79
2019-01-26T07:05:49.355Z,66.60
2019-01-26T07:06:52.163Z,65.69
2019-01-26T07:07:53.049Z,66.33
2019-01-26T07:08:53.909Z,64.58
2019-01-26T07:09:54.759Z,65.57
2019-01-26T07:10:55.611Z,64.83
2019-01-26T07:11:56.506Z,63.87
2019-01-26T07:12:57.374Z,66.26
2019-01-26T07:13:58.227Z,66.77
2019-01-26T07:14:59.091Z,66.92
2019-01-26T07:16:00.381Z,65.78
2019-01-26T07:17:03.075Z,66.15
2019-01-26T07:18:09.326Z,66.88
2019-01-26T07:19:06.707Z,66.70
2019-01-26T07:20:13.331Z,63.05
2019-01-26T07:21:14.186Z,65.54
2019-01-26T07:22:15.079Z,66.76
2019-01-26T07:23:15.936Z,65.94
2019-01-26T07:24:16.801Z,65.37
2019-01-26T07:25:18.057Z,66.07
2019-01-26T07:26:18.917Z,65.86
2019-01-26T07:27:19.793Z,65.22
2019-01-26T07:28:23.423Z,64.84
2019-01-26T07:29:29.421Z,64.97
2019-01-26T07:30:30.282Z,61.82
2019-01-26T07:31:31.249Z,65.09
2019-01-26T07:32:32.105Z,65.91
2019-01-26T07:33:32.975Z,64.52
2019-01-26T07:34:35.347Z,63.61
2019-01-26T07:35:36.209Z,66.23
2019-01-26T07:36:37.063Z,65.43
2019-01-26T07:37:37.916Z,64.93
2019-01-26T07:38:38.781Z,62.12
2019-01-26T07:39:39.674Z,65.72
2019-01-26T07:40:40.535Z,63.17
2019-01-26T07:41:41.500Z,64.17
2019-01-26T07:42:42.576Z,62.96
2019-01-26T07:43:43.535Z,66.21
2019-01-26T07:44:46.799Z,62.26
2019-01-26T07:45:47.660Z,66.13
2019-01-26T07:46:48.539Z,65.55
2019-01-26T07:47:49.394Z,64.31
2019-01-26T07:48:50.245Z,61.97
2019-01-26T07:49:51.149Z,63.77
2019-01-26T07:50:52.015Z,66.25
2019-01-26T07:51:52.862Z,66.05
2019-01-26T07:52:53.952Z,65.08
2019-01-26T07:53:54.812Z,65.66
2019-01-26T07:54:55.710Z,65.74
2019-01-26T07:55:56.672Z,65.49
2019-01-26T07:56:57.634Z,61.70
2019-01-26T07:58:01.570Z,62.63
2019-01-26T07:59:02.515Z,64.57
2019-01-26T08:00:10.183Z,63.07
2019-01-26T08:01:11.034Z,66.22
2019-01-26T08:02:11.887Z,62.65
2019-01-26T08:03:12.747Z,66.42
2019-01-26T08:04:13.613Z,65.71
2019-01-26T08:05:14.546Z,62.08
2019-01-26T08:06:15.404Z,65.81
2019-01-26T08:07:16.270Z,65.99
2019-01-26T08:08:17.122Z,65.57
2019-01-26T08:09:17.983Z,64.01
2019-01-26T08:10:21.693Z,65.59
2019-01-26T08:11:22.546Z,63.70
2019-01-26T08:12:23.421Z,65.34
2019-01-26T08:13:24.271Z,62.53
2019-01-26T08:14:25.135Z,66.20
2019-01-26T08:15:31.152Z,63.45
2019-01-26T08:16:35.098Z,64.26
2019-01-26T08:17:35.951Z,64.93
2019-01-26T08:18:36.810Z,63.60
2019-01-26T08:19:37.673Z,65.32
2019-01-26T08:20:40.508Z,65.20
2019-01-26T08:21:41.378Z,61.48
2019-01-26T08:22:42.232Z,62.26
2019-01-26T08:23:45.022Z,65.88
2019-01-26T08:24:45.882Z,65.67
2019-01-26T08:25:46.868Z,65.44
2019-01-26T08:26:47.682Z,63.08
2019-01-26T08:27:48.643Z,65.45
2019-01-26T08:28:49.504Z,62.54
2019-01-26T08:29:50.364Z,64.08
2019-01-26T08:30:51.253Z,65.84
2019-01-26T08:31:52.115Z,64.62
2019-01-26T08:32:52.977Z,65.71
2019-01-26T08:33:53.843Z,62.83
2019-01-26T08:34:54.823Z,63.61
2019-01-26T08:35:55.826Z,62.87
2019-01-26T08:36:56.683Z,61.59
2019-01-26T08:37:57.544Z,63.58
2019-01-26T08:38:58.394Z,65.53
2019-01-26T08:39:59.250Z,65.79
2019-01-26T08:41:00.144Z,63.60
2019-01-26T08:42:01.028Z,61.70
2019-01-26T08:43:01.980Z,66.07
2019-01-26T08:44:02.820Z,62.70
2019-01-26T08:45:06.771Z,65.07
2019-01-26T08:46:07.637Z,64.22
2019-01-26T08:47:08.492Z,62.46
2019-01-26T08:48:09.349Z,64.13
2019-01-26T08:49:10.249Z,63.72
2019-01-26T08:50:14.324Z,61.33
2019-01-26T08:51:15.184Z,65.02
2019-01-26T08:52:16.044Z,65.48
2019-01-26T08:53:16.902Z,65.20
2019-01-26T08:54:21.535Z,61.05
2019-01-26T08:55:22.596Z,63.90
2019-01-26T08:56:23.470Z,63.03
2019-01-26T08:57:28.200Z,65.22
2019-01-26T08:58:29.068Z,62.78
2019-01-26T08:59:29.968Z,63.70
2019-01-26T09:00:30.822Z,62.28
2019-01-26T09:01:31.808Z,64.17
2019-01-26T09:02:37.620Z,61.23
2019-01-26T09:03:55.473Z,64.07
2019-01-26T09:04:56.969Z,62.44
2019-01-26T09:05:59.741Z,64.67
2019-01-26T09:07:00.707Z,61.30
2019-01-26T09:08:04.083Z,61.79
2019-01-26T09:09:07.346Z,62.66
2019-01-26T09:10:08.248Z,62.45
2019-01-26T09:11:09.153Z,63.02
2019-01-26T09:12:10.007Z,64.30
2019-01-26T09:13:10.864Z,61.69
2019-01-26T09:14:11.736Z,63.72
2019-01-26T09:15:12.597Z,60.23
2019-01-26T09:16:13.502Z,63.65
2019-01-26T09:17:14.354Z,59.76
2019-01-26T09:18:15.274Z,64.33
2019-01-26T09:19:17.690Z,64.08
2019-01-26T09:20:18.720Z,63.81
2019-01-26T09:21:19.660Z,63.63
2019-01-26T09:22:20.522Z,63.79
2019-01-26T09:23:21.422Z,59.48
2019-01-26T09:24:22.283Z,62.20
2019-01-26T09:25:23.174Z,60.67
2019-01-26T09:26:24.078Z,63.72
2019-01-26T09:27:24.948Z,60.13
2019-01-26T09:28:25.804Z,63.56
2019-01-26T09:29:26.767Z,60.07
2019-01-26T09:30:27.735Z,59.73
2019-01-26T09:31:29.019Z,61.13
2019-01-26T09:32:29.880Z,60.30
2019-01-26T09:33:30.895Z,62.40
2019-01-26T09:34:31.942Z,59.90
2019-01-26T09:35:32.861Z,64.27
2019-01-26T09:36:33.717Z,61.61
2019-01-26T09:37:37.176Z,60.44
2019-01-26T09:38:38.026Z,62.20
2019-01-26T09:39:38.892Z,64.13
2019-01-26T09:40:42.716Z,60.55
2019-01-26T09:41:43.574Z,62.92
2019-01-26T09:42:46.371Z,62.02
2019-01-26T09:43:54.732Z,61.03
2019-01-26T09:44:59.395Z,63.95
2019-01-26T09:46:00.290Z,64.53
2019-01-26T09:47:01.360Z,64.47
2019-01-26T09:48:02.324Z,62.94
2019-01-26T09:49:05.092Z,59.36
2019-01-26T09:50:08.552Z,62.58
2019-01-26T09:51:09.444Z,63.54
2019-01-26T09:52:10.330Z,64.41
2019-01-26T09:53:11.193Z,60.29
2019-01-26T09:54:12.058Z,60.27
2019-01-26T09:55:17.231Z,63.37
2019-01-26T09:56:18.190Z,59.75
2019-01-26T09:57:20.964Z,63.62
2019-01-26T09:58:21.830Z,64.04
2019-01-26T09:59:22.676Z,61.92
2019-01-26T10:00:24.940Z,60.34
2019-01-26T10:01:25.828Z,62.87
2019-01-26T10:02:26.686Z,63.65
2019-01-26T10:03:27.548Z,62.33
2019-01-26T10:04:28.414Z,62.34
2019-01-26T10:05:29.268Z,63.76
2019-01-26T10:06:30.157Z,59.73
2019-01-26T10:07:31.022Z,63.56
2019-01-26T10:08:31.990Z,61.06
2019-01-26T10:09:32.851Z,60.47
2019-01-26T10:10:33.700Z,61.18
2019-01-26T10:11:34.589Z,61.45
2019-01-26T10:12:35.458Z,59.79
2019-01-26T10:13:36.317Z,61.96
2019-01-26T10:14:37.300Z,59.95
2019-01-26T10:15:38.143Z,59.92
2019-01-26T10:16:39.034Z,59.38
2019-01-26T10:17:45.798Z,62.99
2019-01-26T10:18:42.748Z,61.04
2019-01-26T10:19:43.620Z,62.13
2019-01-26T10:20:44.480Z,59.56
2019-01-26T10:21:45.383Z,59.82
2019-01-26T10:22:46.232Z,64.00
2019-01-26T10:23:47.087Z,59.42
2019-01-26T10:24:47.938Z,59.36
2019-01-26T10:25:49.065Z,59.84
2019-01-26T10:26:51.944Z,60.22
2019-01-26T10:27:52.815Z,59.19
2019-01-26T10:28:53.666Z,62.74
2019-01-26T10:29:54.646Z,60.92
2019-01-26T10:30:57.422Z,60.52
2019-01-26T10:31:58.306Z,62.04
2019-01-26T10:32:59.178Z,59.71
2019-01-26T10:34:00.043Z,60.06
2019-01-26T10:35:00.921Z,59.79
2019-01-26T10:36:03.828Z,62.61
2019-01-26T10:37:05.301Z,60.80
2019-01-26T10:38:06.149Z,58.32
2019-01-26T10:39:08.506Z,59.09
2019-01-26T10:40:11.868Z,59.34
2019-01-26T10:41:29.622Z,62.15
2019-01-26T10:42:30.486Z,58.73
2019-01-26T10:43:39.357Z,58.51
2019-01-26T10:44:40.304Z,61.42
2019-01-26T10:45:41.276Z,58.33
2019-01-26T10:46:42.165Z,61.42
2019-01-26T10:47:43.034Z,63.11
2019-01-26T10:48:43.918Z,57.96
2019-01-26T10:49:44.779Z,60.25
2019-01-26T10:50:45.635Z,60.85
2019-01-26T10:51:46.862Z,60.66
2019-01-26T10:52:47.849Z,62.05
2019-01-26T10:53:48.778Z,60.59
2019-01-26T10:54:49.638Z,59.27
2019-01-26T10:55:50.494Z,62.69
2019-01-26T10:56:51.370Z,61.27
2019-01-26T10:57:52.230Z,59.42
2019-01-26T10:58:53.144Z,58.26
2019-01-26T10:59:54.036Z,58.22
2019-01-26T11:00:54.887Z,57.65
2019-01-26T11:01:55.740Z,57.58
2019-01-26T11:02:56.740Z,57.29
2019-01-26T11:03:57.627Z,57.14
2019-01-26T11:04:58.501Z,60.47
2019-01-26T11:05:59.366Z,58.46
2019-01-26T11:07:00.234Z,60.89
2019-01-26T11:08:01.137Z,57.92
2019-01-26T11:09:04.106Z,59.03
2019-01-26T11:10:11.090Z,57.58
2019-01-26T11:11:11.960Z,59.53
2019-01-26T11:12:12.813Z,58.54
2019-01-26T11:13:13.705Z,56.81
2019-01-26T11:14:14.562Z,57.92
2019-01-26T11:15:15.453Z,59.77
2019-01-26T11:16:16.348Z,60.79
2019-01-26T11:17:17.210Z,59.19
2019-01-26T11:18:18.066Z,60.74
2019-01-26T11:19:18.932Z,60.52
2019-01-26T11:20:19.801Z,59.13
2019-01-26T11:21:20.986Z,59.75
2019-01-26T11:22:21.840Z,61.16
2019-01-26T11:23:22.700Z,61.36
2019-01-26T11:24:23.602Z,61.62
2019-01-26T11:25:24.549Z,61.06
2019-01-26T11:26:25.452Z,62.05
2019-01-26T11:27:26.308Z,57.77
2019-01-26T11:28:27.245Z,61.16
2019-01-26T11:29:28.122Z,58.59
2019-01-26T11:30:30.876Z,55.89
2019-01-26T11:31:32.486Z,59.28
2019-01-26T11:32:33.452Z,59.88
2019-01-26T11:33:34.316Z,60.85
2019-01-26T11:34:35.312Z,59.88
2019-01-26T11:35:36.314Z,58.61
2019-01-26T11:36:37.210Z,56.44
2019-01-26T11:37:38.064Z,58.47
2019-01-26T11:38:38.930Z,59.07
2019-01-26T11:39:41.695Z,55.72
2019-01-26T11:40:42.553Z,58.44
2019-01-26T11:41:43.574Z,59.28
2019-01-26T11:42:44.485Z,55.98
2019-01-26T11:43:45.352Z,57.85
2019-01-26T11:44:48.109Z,53.85
2019-01-26T11:45:59.837Z,54.98
2019-01-26T11:47:00.740Z,54.88
2019-01-26T11:48:03.598Z,55.52
2019-01-26T11:49:04.556Z,54.46
2019-01-26T11:50:06.622Z,53.30
2019-01-26T11:51:15.416Z,51.91
2019-01-26T11:52:16.472Z,58.40
2019-01-26T11:53:17.488Z,56.75
2019-01-26T11:54:19.260Z,57.54
2019-01-26T11:55:22.025Z,60.08
2019-01-26T11:56:27.532Z,55.90
2019-01-26T11:57:33.578Z,60.03
2019-01-26T11:58:34.533Z,57.93
2019-01-26T11:59:36.596Z,60.61
2019-01-26T12:00:39.360Z,60.27
2019-01-26T12:01:44.744Z,57.75
2019-01-26T12:02:47.561Z,56.44
2019-01-26T12:04:01.620Z,60.43
2019-01-26T12:05:04.280Z,57.88
2019-01-26T12:06:09.898Z,60.94
2019-01-26T12:07:10.767Z,59.20
2019-01-26T12:08:11.758Z,57.58
2019-01-26T12:09:14.532Z,56.55
2019-01-26T12:10:15.512Z,62.40
2019-01-26T12:11:16.367Z,62.24
2019-01-26T12:12:17.214Z,61.81
2019-01-26T12:13:18.115Z,59.31
2019-01-26T12:14:18.992Z,62.91
2019-01-26T12:15:19.851Z,58.08
2019-01-26T12:16:26.871Z,56.95
2019-01-26T12:17:23.573Z,62.45
2019-01-26T12:18:24.470Z,62.33
2019-01-26T12:19:25.337Z,62.51
2019-01-26T12:20:26.199Z,60.92
2019-01-26T12:21:27.074Z,57.44
2019-01-26T12:22:27.929Z,58.54
2019-01-26T12:23:28.912Z,64.48
2019-01-26T12:24:29.769Z,59.93
2019-01-26T12:25:30.623Z,60.67
2019-01-26T12:26:31.534Z,63.46
2019-01-26T12:27:32.511Z,64.27
2019-01-26T12:28:33.605Z,63.89
2019-01-26T12:29:34.464Z,60.30
2019-01-26T12:30:35.328Z,64.57
2019-01-26T12:31:36.198Z,61.92
2019-01-26T12:32:37.055Z,62.02
2019-01-26T12:33:37.917Z,59.50
2019-01-26T12:34:38.770Z,64.94
2019-01-26T12:35:39.646Z,63.99
2019-01-26T12:36:40.535Z,56.54
2019-01-26T12:37:41.540Z,57.91
2019-01-26T12:38:42.399Z,59.84
2019-01-26T12:39:43.292Z,63.60
2019-01-26T12:40:44.118Z,65.95
2019-01-26T12:41:44.973Z,65.15
2019-01-26T12:42:45.994Z,65.30
2019-01-26T12:43:46.933Z,57.67
2019-01-26T12:44:47.789Z,65.93
2019-01-26T12:45:49.348Z,62.54
2019-01-26T12:46:50.214Z,63.17
2019-01-26T12:47:51.115Z,59.68
2019-01-26T12:48:51.966Z,60.97
2019-01-26T12:49:53.024Z,61.06
2019-01-26T12:50:53.878Z,66.34
2019-01-26T12:51:54.739Z,65.73
2019-01-26T12:52:55.622Z,64.87
2019-01-26T12:53:56.538Z,63.57
2019-01-26T12:54:57.393Z,61.91
2019-01-26T12:55:58.255Z,65.70
2019-01-26T12:56:59.112Z,64.18
2019-01-26T12:58:00.003Z,65.63
2019-01-26T12:59:00.873Z,63.05
2019-01-26T13:00:02.430Z,61.42
2019-01-26T13:01:03.788Z,65.95
2019-01-26T13:02:04.648Z,62.49
2019-01-26T13:03:06.034Z,65.53
2019-01-26T13:04:06.890Z,65.65
2019-01-26T13:05:07.757Z,62.12
2019-01-26T13:06:08.620Z,59.64
2019-01-26T13:07:09.476Z,63.15
2019-01-26T13:08:10.370Z,66.43
2019-01-26T13:09:11.227Z,62.43
2019-01-26T13:10:27.590Z,64.82